Time,TemperatureF,DewpointF,PressureIn,WindDirection,WindDirectionDegrees,WindSpeedMPH,WindSpeedGustMPH,Humidity,HourlyPrecipIn,Conditions,Clouds,dailyrainin,SoftwareType,DateUTC
2013-04-30 00:04:00,67.4,66.2,29.95,SSW,194,0.0,2.0,96,0.02,,FEW060,0.00,VWS V14.01,2013-04-30 04:04:00,
2013-04-30 00:34:00,66.6,65.4,29.96,SSW,194,0.0,0.0,96,0.01,,FEW060,0.00,VWS V14.01,2013-04-30 04:34:00,
2013-04-30 01:04:00,66.4,65.5,29.95,SSW,194,0.0,0.0,97,0.00,,FEW005,0.00,VWS V14.01,2013-04-30 05:04:00,
2013-04-30 01:34:00,66.4,65.5,29.95,SSW,194,0.0,0.0,97,0.00,,FEW005,0.00,VWS V14.01,2013-04-30 05:34:00,
2013-04-30 02:04:00,66.0,65.1,29.94,SSW,194,0.0,0.0,97,0.00,,CLR,0.00,VWS V14.01,2013-04-30 06:04:00,
2013-04-30 02:34:00,65.8,64.9,29.94,SSW,193,0.0,0.0,97,0.00,,CLR,0.00,VWS V14.01,2013-04-30 06:34:00,
2013-04-30 03:04:00,65.8,64.9,29.93,SSW,194,0.0,0.0,97,0.00,,CLR,0.00,VWS V14.01,2013-04-30 07:04:00,
2013-04-30 03:34:00,65.8,64.9,29.93,SSW,194,0.0,0.0,97,0.00,,CLR,0.00,VWS V14.01,2013-04-30 07:34:00,
2013-04-30 04:04:00,65.8,64.9,29.93,SSW,194,0.0,0.0,97,0.00,,FEW120,0.00,VWS V14.01,2013-04-30 08:04:00,
2013-04-30 04:34:00,65.6,64.7,29.92,SSW,194,0.0,0.0,97,0.00,,FEW120,0.00,VWS V14.01,2013-04-30 08:34:00,
2013-04-30 05:04:00,65.8,65.2,29.93,SSW,194,0.0,0.0,98,0.00,,CLR,0.00,VWS V14.01,2013-04-30 09:04:00,
2013-04-30 05:34:00,66.2,65.3,29.93,SSW,194,0.0,0.0,97,0.00,,CLR,0.00,VWS V14.01,2013-04-30 09:34:00,
2013-04-30 06:04:00,66.9,66.3,29.94,SSW,194,0.0,0.0,98,0.00,,SCT110,0.00,VWS V14.01,2013-04-30 10:04:00,
2013-04-30 06:34:00,67.5,66.9,29.96,SSW,194,0.0,0.0,98,0.02,,SCT110,0.02,VWS V14.01,2013-04-30 10:34:00,
2013-04-30 07:04:00,68.2,67.6,29.97,SW,226,0.0,0.0,98,0.05,,-RA,0.05,VWS V14.01,2013-04-30 11:04:00,
2013-04-30 07:34:00,68.7,68.1,29.98,West,266,0.0,1.0,98,0.07,,-RA,0.07,VWS V14.01,2013-04-30 11:34:00,
2013-04-30 08:04:00,69.0,68.4,29.99,NNW,333,0.0,1.0,98,0.09,,-RA,0.11,VWS V14.01,2013-04-30 12:04:00,
2013-04-30 08:34:00,69.5,68.9,29.97,ESE,110,0.0,1.0,98,0.10,,-RA,0.15,VWS V14.01,2013-04-30 12:34:00,
2013-04-30 09:04:00,70.2,69.6,29.98,SE,136,0.0,1.0,98,0.08,,,0.15,VWS V14.01,2013-04-30 13:04:00,
2013-04-30 09:34:00,70.5,69.9,29.97,West,280,0.0,1.0,98,0.04,,,0.15,VWS V14.01,2013-04-30 13:34:00,
2013-04-30 10:04:00,72.6,70.8,29.98,SE,142,0.0,1.0,94,0.00,,SCT110,0.15,VWS V14.01,2013-04-30 14:04:00,
2013-04-30 10:34:00,74.9,70.8,29.99,West,280,0.0,1.0,87,0.00,,SCT110,0.15,VWS V14.01,2013-04-30 14:34:00,
2013-04-30 11:04:00,76.4,70.9,29.99,South,188,0.0,1.0,83,0.00,,SCT110,0.15,VWS V14.01,2013-04-30 15:04:00,
2013-04-30 11:34:00,78.1,68.3,29.99,SSE,149,0.0,0.0,72,0.00,,SCT110,0.15,VWS V14.01,2013-04-30 15:34:00,
2013-04-30 12:04:00,81.4,70.3,29.98,SW,231,0.0,1.0,69,0.00,,CLR,0.15,VWS V14.01,2013-04-30 16:04:00,
2013-04-30 12:34:00,84.1,68.7,29.97,ESE,117,0.0,2.0,60,0.00,,CLR,0.15,VWS V14.01,2013-04-30 16:34:00,
2013-04-30 13:04:00,85.3,69.4,29.95,SE,128,0.0,4.0,59,0.00,,CLR,0.15,VWS V14.01,2013-04-30 17:04:00,
2013-04-30 13:34:00,87.0,69.4,29.94,WSW,238,0.0,4.0,56,0.00,,CLR,0.15,VWS V14.01,2013-04-30 17:34:00,
2013-04-30 14:04:00,87.5,69.4,29.93,NNE,25,0.0,3.0,55,0.00,,CLR,0.15,VWS V14.01,2013-04-30 18:04:00,
2013-04-30 14:34:00,88.4,71.2,29.93,SSW,212,0.0,4.0,57,0.00,,CLR,0.15,VWS V14.01,2013-04-30 18:34:00,
2013-04-30 15:04:00,86.2,67.1,29.92,SE,140,0.0,3.0,53,0.00,,CLR,0.15,VWS V14.01,2013-04-30 19:04:00,
2013-04-30 15:34:00,87.6,68.4,29.91,NNW,335,0.0,1.0,53,0.00,,CLR,0.15,VWS V14.01,2013-04-30 19:34:00,
2013-04-30 16:04:00,89.9,68.8,29.91,North,350,0.0,3.0,50,0.00,,CLR,0.15,VWS V14.01,2013-04-30 20:04:00,
2013-04-30 16:34:00,85.2,71.2,29.91,South,191,0.0,4.0,63,0.00,,CLR,0.15,VWS V14.01,2013-04-30 20:34:00,
2013-04-30 17:04:00,83.0,71.8,29.91,SW,217,1.0,2.0,69,0.00,,SCT095,0.15,VWS V14.01,2013-04-30 21:04:00,
2013-04-30 17:34:00,81.3,71.8,29.92,South,174,3.0,5.0,73,0.00,,SCT095,0.15,VWS V14.01,2013-04-30 21:34:00,
2013-04-30 18:04:00,79.0,69.6,29.93,SSE,164,1.0,7.0,73,0.00,,SCT110,0.15,VWS V14.01,2013-04-30 22:04:00,
2013-04-30 18:34:00,75.9,66.6,29.93,SW,215,1.0,5.0,73,0.00,,,0.15,VWS V14.01,2013-04-30 22:34:00,
2013-04-30 19:04:00,73.7,67.9,29.94,SSE,159,0.0,5.0,82,0.00,,OVC100,0.15,VWS V14.01,2013-04-30 23:04:00,
2013-04-30 19:34:00,72.1,69.3,29.96,SSW,200,0.0,5.0,91,0.01,,OVC100,0.16,VWS V14.01,2013-04-30 23:34:00,
2013-04-30 20:04:00,71.4,69.6,29.97,SW,217,0.0,1.0,94,0.01,,OVC055,0.16,VWS V14.01,2013-05-01 00:04:00,
2013-04-30 20:34:00,70.7,68.6,29.99,SW,231,0.0,1.0,93,0.01,,OVC055,0.16,VWS V14.01,2013-05-01 00:34:00,
2013-04-30 21:04:00,70.5,68.1,30.00,West,281,0.0,2.0,92,0.00,,OVC110,0.16,VWS V14.01,2013-05-01 01:04:00,
2013-04-30 21:34:00,70.3,68.2,30.00,WNW,283,0.0,1.0,93,0.01,,RA,0.17,VWS V14.01,2013-05-01 01:34:00,
2013-04-30 22:04:00,69.9,68.4,29.99,WNW,284,0.0,1.0,95,0.02,,-RA,0.18,VWS V14.01,2013-05-01 02:04:00,
2013-04-30 22:34:00,69.6,68.4,29.99,WNW,284,0.0,0.0,96,0.02,,-RA,0.18,VWS V14.01,2013-05-01 02:34:00,
2013-04-30 23:04:00,69.4,68.2,29.99,WNW,283,0.0,0.0,96,0.01,,FEW100,0.18,VWS V14.01,2013-05-01 03:04:00,
2013-04-30 23:34:00,69.2,68.0,30.00,WNW,283,0.0,0.0,96,0.00,,FEW100,0.18,VWS V14.01,2013-05-01 03:34:00,